createdAt,value
2018-10-11T00:02:00.370Z,15.88
2018-10-11T00:04:28.763Z,15.92
2018-10-11T00:06:57.204Z,15.90
2018-10-11T00:09:25.784Z,15.87
2018-10-11T00:11:54.203Z,15.85
2018-10-11T00:14:22.844Z,15.90
2018-10-11T00:16:51.223Z,16.00
2018-10-11T00:19:19.823Z,15.93
2018-10-11T00:21:48.885Z,15.97
2018-10-11T00:24:17.290Z,16.06
2018-10-11T00:26:45.728Z,16.05
2018-10-11T00:29:14.180Z,16.08
2018-10-11T00:31:42.623Z,16.09
2018-10-11T00:34:11.511Z,16.10
2018-10-11T00:36:39.866Z,16.01
2018-10-11T00:39:09.025Z,16.08
2018-10-11T00:41:38.399Z,16.03
2018-10-11T00:44:06.868Z,16.02
2018-10-11T00:46:35.286Z,16.20
2018-10-11T00:49:03.994Z,16.04
2018-10-11T00:51:32.336Z,15.96
2018-10-11T00:54:00.738Z,16.04
2018-10-11T00:56:29.359Z,15.99
2018-10-11T00:58:57.762Z,15.94
2018-10-11T01:01:26.204Z,15.90
2018-10-11T01:03:55.154Z,16.02
2018-10-11T01:06:23.626Z,15.89
2018-10-11T01:08:52.202Z,15.94
2018-10-11T01:11:20.782Z,16.05
2018-10-11T01:13:49.202Z,16.04
2018-10-11T01:16:17.962Z,16.07
2018-10-11T01:18:46.327Z,15.99
2018-10-11T01:21:15.540Z,16.09
2018-10-11T01:23:43.981Z,16.05
2018-10-11T01:26:12.587Z,15.92
2018-10-11T01:28:41.610Z,15.87
2018-10-11T01:31:15.639Z,15.85
2018-10-11T01:33:44.366Z,15.82
2018-10-11T01:36:12.830Z,15.83
2018-10-11T01:38:41.269Z,15.82
2018-10-11T01:41:09.682Z,15.81
2018-10-11T01:43:38.046Z,15.75
2018-10-11T01:46:06.826Z,15.72
2018-10-11T01:48:35.167Z,15.64
2018-10-11T01:51:03.583Z,15.62
2018-10-11T01:53:32.094Z,15.52
2018-10-11T01:56:00.507Z,15.63
2018-10-11T01:58:28.954Z,15.56
2018-10-11T02:00:57.311Z,15.51
2018-10-11T02:03:26.590Z,15.43
2018-10-11T02:05:55.042Z,15.39
2018-10-11T02:08:23.471Z,15.42
2018-10-11T02:10:51.831Z,15.39
2018-10-11T02:13:20.484Z,15.34
2018-10-11T02:15:48.894Z,15.36
2018-10-11T02:18:17.546Z,15.40
2018-10-11T02:20:45.915Z,15.40
2018-10-11T02:23:14.339Z,15.28
2018-10-11T02:25:42.694Z,15.27
2018-10-11T02:28:11.258Z,15.24
2018-10-11T02:30:39.691Z,15.25
2018-10-11T02:33:08.126Z,15.20
2018-10-11T02:35:36.501Z,15.26
2018-10-11T02:38:04.885Z,15.22
2018-10-11T02:40:34.134Z,15.32
2018-10-11T02:43:02.480Z,15.26
2018-10-11T02:45:30.843Z,15.19
2018-10-11T02:47:59.292Z,15.26
2018-10-11T02:50:27.653Z,15.16
2018-10-11T02:52:56.097Z,15.11
2018-10-11T02:55:26.222Z,15.13
2018-10-11T02:58:05.843Z,15.15
2018-10-11T03:00:35.378Z,15.13
2018-10-11T03:03:10.654Z,15.10
2018-10-11T03:05:44.454Z,15.05
2018-10-11T03:08:17.382Z,15.17
2018-10-11T03:10:46.161Z,15.03
2018-10-11T03:13:15.166Z,15.04
2018-10-11T03:15:44.667Z,15.11
2018-10-11T03:18:14.902Z,15.09
2018-10-11T03:20:44.615Z,15.15
2018-10-11T03:23:13.800Z,15.09
2018-10-11T03:25:44.031Z,15.08
2018-10-11T03:28:13.858Z,15.06
2018-10-11T03:30:42.863Z,15.15
2018-10-11T03:33:11.969Z,15.07
2018-10-11T03:35:41.257Z,15.08
2018-10-11T03:38:09.785Z,15.05
2018-10-11T03:40:38.199Z,15.00
2018-10-11T03:43:06.662Z,15.03
2018-10-11T03:45:35.663Z,14.99
2018-10-11T03:48:04.072Z,15.00
2018-10-11T03:50:32.486Z,14.99
2018-10-11T03:53:00.930Z,14.97
2018-10-11T03:55:30.058Z,14.95
2018-10-11T03:57:58.639Z,15.00
2018-10-11T04:00:27.191Z,15.00
2018-10-11T04:02:55.619Z,14.90
2018-10-11T04:05:24.078Z,14.90
2018-10-11T04:07:52.834Z,14.87
2018-10-11T04:10:21.206Z,14.81
2018-10-11T04:12:49.567Z,14.76
2018-10-11T04:15:18.167Z,14.75
2018-10-11T04:17:46.548Z,14.65
2018-10-11T04:20:15.293Z,14.59
2018-10-11T04:22:43.777Z,14.60
2018-10-11T04:25:12.130Z,14.59
2018-10-11T04:27:40.471Z,14.58
2018-10-11T04:30:08.986Z,14.55
2018-10-11T04:32:37.617Z,14.55
2018-10-11T04:35:06.220Z,14.52
2018-10-11T04:37:34.641Z,14.53
2018-10-11T04:40:03.025Z,14.45
2018-10-11T04:42:31.519Z,14.38
2018-10-11T04:44:59.901Z,14.28
2018-10-11T04:47:28.902Z,14.27
2018-10-11T04:49:57.281Z,14.23
2018-10-11T04:52:25.724Z,14.23
2018-10-11T04:54:54.111Z,14.22
2018-10-11T04:57:22.599Z,14.13
2018-10-11T04:59:51.128Z,14.20
2018-10-11T05:02:19.561Z,14.23
2018-10-11T05:04:47.950Z,14.21
2018-10-11T05:07:16.345Z,14.15
2018-10-11T05:09:44.895Z,14.18
2018-10-11T05:12:14.129Z,13.99
2018-10-11T05:14:42.616Z,14.01
2018-10-11T05:17:11.007Z,13.99
2018-10-11T05:19:40.652Z,13.96
2018-10-11T05:22:09.055Z,13.95
2018-10-11T05:24:37.438Z,13.88
2018-10-11T05:27:06.322Z,13.86
2018-10-11T05:29:35.574Z,13.81
2018-10-11T05:32:04.007Z,13.91
2018-10-11T05:34:32.388Z,13.83
2018-10-11T05:37:00.798Z,13.83
2018-10-11T05:39:29.390Z,13.79
2018-10-11T05:41:57.865Z,13.81
2018-10-11T05:44:26.466Z,13.79
2018-10-11T05:46:57.333Z,13.70
2018-10-11T05:49:25.738Z,13.76
2018-10-11T05:51:54.966Z,13.73
2018-10-11T05:54:23.421Z,13.70
2018-10-11T05:56:51.862Z,13.73
2018-10-11T05:59:20.407Z,13.72
2018-10-11T06:01:49.014Z,13.73
2018-10-11T06:04:17.810Z,13.75
2018-10-11T06:06:47.752Z,13.68
2018-10-11T06:09:16.702Z,13.74
2018-10-11T06:11:45.641Z,13.76
2018-10-11T06:14:15.012Z,13.80
2018-10-11T06:16:43.494Z,13.76
2018-10-11T06:19:14.290Z,13.76
2018-10-11T06:21:43.031Z,13.71
2018-10-11T06:24:11.947Z,13.79
2018-10-11T06:26:40.500Z,13.78
2018-10-11T06:29:09.273Z,13.93
2018-10-11T06:31:37.719Z,14.02
2018-10-11T06:34:06.281Z,14.06
2018-10-11T06:36:35.217Z,14.09
2018-10-11T06:39:04.659Z,14.18
2018-10-11T06:41:33.039Z,14.20
2018-10-11T06:44:01.570Z,14.24
2018-10-11T06:46:30.238Z,14.28
2018-10-11T06:48:58.663Z,14.27
2018-10-11T06:51:27.093Z,14.30
2018-10-11T06:53:55.479Z,14.37
2018-10-11T06:56:24.317Z,14.43
2018-10-11T06:58:53.005Z,14.41
2018-10-11T07:01:21.683Z,14.42
2018-10-11T07:03:50.121Z,14.34
2018-10-11T07:06:18.557Z,14.38
2018-10-11T07:08:46.938Z,14.31
2018-10-11T07:11:15.999Z,14.29
2018-10-11T07:13:44.712Z,14.38
2018-10-11T07:16:13.652Z,14.40
2018-10-11T07:18:42.119Z,14.44
2018-10-11T07:21:10.692Z,14.40
2018-10-11T07:23:39.454Z,14.40
2018-10-11T07:26:07.841Z,14.46
2018-10-11T07:28:36.437Z,14.59
2018-10-11T07:31:04.865Z,14.67
2018-10-11T07:33:33.334Z,14.79
2018-10-11T07:36:01.734Z,14.92
2018-10-11T07:38:30.129Z,15.15
2018-10-11T07:40:58.521Z,15.51
2018-10-11T07:43:26.939Z,15.71
2018-10-11T07:45:55.498Z,16.14
2018-10-11T07:48:23.896Z,16.46
2018-10-11T07:50:52.280Z,16.62
2018-10-11T07:53:20.690Z,16.85
2018-10-11T07:55:49.185Z,16.85
2018-10-11T07:58:17.806Z,17.22
2018-10-11T08:00:46.221Z,17.27
2018-10-11T08:03:14.602Z,17.52
2018-10-11T08:05:43.172Z,17.52
2018-10-11T08:08:11.589Z,17.49
2018-10-11T08:10:40.161Z,17.70
2018-10-11T08:13:08.562Z,17.74
2018-10-11T08:15:36.977Z,17.95
2018-10-11T08:18:05.932Z,18.16
2018-10-11T08:20:34.351Z,18.54
2018-10-11T08:23:02.696Z,18.63
2018-10-11T08:25:31.370Z,19.17
2018-10-11T08:27:59.511Z,19.02
2018-10-11T08:30:27.926Z,18.78
2018-10-11T08:32:56.411Z,18.91
2018-10-11T08:35:24.751Z,19.13
2018-10-11T08:37:53.267Z,19.24
2018-10-11T08:40:21.495Z,19.07
2018-10-11T08:42:49.920Z,19.10
2018-10-11T08:45:18.312Z,19.20
2018-10-11T08:47:46.718Z,18.94
2018-10-11T08:50:15.108Z,18.71
2018-10-11T08:52:43.510Z,18.75
2018-10-11T08:55:11.897Z,18.65
2018-10-11T08:57:40.741Z,18.85
2018-10-11T09:00:10.146Z,18.77
2018-10-11T09:02:38.646Z,18.68
2018-10-11T09:05:07.274Z,18.84
2018-10-11T09:07:35.629Z,18.73
2018-10-11T09:10:04.059Z,18.78
2018-10-11T09:12:32.613Z,18.79
2018-10-11T09:15:01.093Z,18.79
2018-10-11T09:17:29.542Z,18.92
2018-10-11T09:19:58.275Z,19.02
2018-10-11T09:22:26.870Z,19.16
2018-10-11T09:24:55.765Z,19.24
2018-10-11T09:27:24.545Z,19.28
2018-10-11T09:29:53.098Z,19.50
2018-10-11T09:32:21.510Z,19.53
2018-10-11T09:34:50.189Z,19.44
2018-10-11T09:37:19.612Z,19.35
2018-10-11T09:39:48.367Z,19.52
2018-10-11T09:42:17.528Z,19.67
2018-10-11T09:44:46.148Z,19.76
2018-10-11T09:47:14.635Z,19.82
2018-10-11T09:49:43.039Z,19.93
2018-10-11T09:52:11.485Z,19.84
2018-10-11T09:54:39.971Z,20.06
2018-10-11T09:57:23.966Z,20.07
2018-10-11T09:59:52.501Z,20.02
2018-10-11T10:02:21.382Z,20.02
2018-10-11T10:04:51.678Z,20.11
2018-10-11T10:07:20.791Z,19.93
2018-10-11T10:09:49.949Z,20.00
2018-10-11T10:12:19.023Z,19.99
2018-10-11T10:14:48.230Z,20.15
2018-10-11T10:17:17.811Z,20.14
2018-10-11T10:19:47.072Z,20.12
2018-10-11T10:22:15.976Z,20.16
2018-10-11T10:24:45.308Z,20.23
2018-10-11T10:27:13.934Z,20.26
2018-10-11T10:29:42.392Z,20.31
2018-10-11T10:32:10.834Z,20.42
2018-10-11T10:34:39.255Z,20.52
2018-10-11T10:37:07.930Z,20.61
2018-10-11T10:39:36.324Z,20.72
2018-10-11T10:42:04.714Z,20.72
2018-10-11T10:44:33.054Z,20.66
2018-10-11T10:47:01.413Z,20.80
2018-10-11T10:49:29.792Z,20.77
2018-10-11T10:51:58.671Z,20.81
2018-10-11T10:54:35.296Z,20.85
2018-10-11T10:57:05.032Z,21.06
2018-10-11T10:59:33.418Z,21.23
2018-10-11T11:02:01.835Z,21.24
2018-10-11T11:04:30.203Z,21.26
2018-10-11T11:06:58.545Z,21.37
2018-10-11T11:09:26.958Z,21.29
2018-10-11T11:11:55.290Z,21.48
2018-10-11T11:14:23.848Z,21.50
2018-10-11T11:16:52.528Z,21.51
2018-10-11T11:19:20.875Z,21.73
2018-10-11T11:21:49.275Z,21.64
2018-10-11T11:24:17.690Z,21.68
2018-10-11T11:26:46.278Z,21.85
2018-10-11T11:29:14.741Z,21.96
2018-10-11T11:31:43.189Z,21.91
2018-10-11T11:34:11.772Z,21.97
2018-10-11T11:36:40.155Z,21.88
2018-10-11T11:39:09.594Z,22.11
2018-10-11T11:41:38.097Z,21.89
2018-10-11T11:44:06.574Z,22.13
2018-10-11T11:46:35.347Z,22.07
2018-10-11T11:49:03.803Z,22.13
2018-10-11T11:51:32.203Z,22.22
2018-10-11T11:54:00.616Z,22.27
2018-10-11T11:56:29.028Z,22.21
2018-10-11T11:58:57.499Z,22.32
2018-10-11T12:01:25.920Z,22.44
2018-10-11T12:03:55.343Z,22.41
2018-10-11T12:06:23.732Z,22.42
2018-10-11T12:08:52.169Z,22.41
2018-10-11T12:11:20.693Z,22.46
2018-10-11T12:13:49.751Z,22.54
2018-10-11T12:16:18.149Z,22.58
2018-10-11T12:18:46.516Z,22.61
2018-10-11T12:21:14.940Z,22.69
2018-10-11T12:23:43.350Z,22.82
2018-10-11T12:26:11.720Z,22.97
2018-10-11T12:28:40.233Z,22.87
2018-10-11T12:31:08.508Z,23.06
2018-10-11T12:33:36.859Z,22.94
2018-10-11T12:36:05.824Z,22.95
2018-10-11T12:38:34.329Z,22.98
2018-10-11T12:41:02.703Z,23.14
2018-10-11T12:43:31.119Z,23.23
2018-10-11T12:45:59.478Z,23.22
2018-10-11T12:48:27.919Z,23.26
2018-10-11T12:50:56.337Z,23.30
2018-10-11T12:53:24.739Z,23.27
2018-10-11T12:55:53.181Z,23.36
2018-10-11T12:58:21.594Z,23.38
2018-10-11T13:00:50.015Z,23.34
2018-10-11T13:03:19.263Z,23.32
2018-10-11T13:05:47.926Z,23.35
2018-10-11T13:08:19.779Z,23.44
2018-10-11T13:10:49.442Z,23.51
2018-10-11T13:13:18.523Z,23.57
2018-10-11T13:15:47.464Z,23.53
2018-10-11T13:18:16.269Z,23.60
2018-10-11T13:20:44.750Z,23.65
2018-10-11T13:23:16.914Z,23.60
2018-10-11T13:25:42.064Z,23.60
2018-10-11T13:28:10.657Z,23.46
2018-10-11T13:30:39.183Z,23.48
2018-10-11T13:33:08.099Z,23.56
2018-10-11T13:35:37.155Z,23.57
2018-10-11T13:38:05.945Z,23.52
2018-10-11T13:40:34.909Z,23.53
2018-10-11T13:43:03.264Z,23.61
2018-10-11T13:45:31.810Z,23.65
2018-10-11T13:48:00.761Z,23.59
2018-10-11T13:50:29.180Z,23.60
2018-10-11T13:52:57.594Z,23.64
2018-10-11T13:55:26.001Z,23.51
2018-10-11T13:57:54.828Z,23.49
2018-10-11T14:00:23.294Z,23.56
2018-10-11T14:02:51.687Z,23.65
2018-10-11T14:05:20.350Z,23.63
2018-10-11T14:07:48.812Z,23.75
2018-10-11T14:10:17.221Z,23.76
2018-10-11T14:12:46.225Z,23.62
2018-10-11T14:15:14.954Z,23.61
2018-10-11T14:17:43.432Z,23.64
2018-10-11T14:20:11.862Z,23.54
2018-10-11T14:22:40.969Z,23.48
2018-10-11T14:25:09.366Z,23.55
2018-10-11T14:27:37.805Z,23.49
2018-10-11T14:30:06.827Z,23.46
2018-10-11T14:32:35.780Z,23.35
2018-10-11T14:35:04.541Z,23.34
2018-10-11T14:37:32.896Z,23.32
2018-10-11T14:40:01.335Z,23.31
2018-10-11T14:42:29.725Z,23.18
2018-10-11T14:44:58.343Z,23.01
2018-10-11T14:47:27.334Z,22.98
2018-10-11T14:49:55.731Z,22.94
2018-10-11T14:52:24.120Z,23.00
2018-10-11T14:54:52.604Z,22.98
2018-10-11T14:57:21.335Z,22.91
2018-10-11T14:59:49.913Z,22.85
2018-10-11T15:02:18.861Z,22.85
2018-10-11T15:04:47.870Z,22.88
2018-10-11T15:07:16.276Z,22.78
2018-10-11T15:09:44.787Z,22.69
2018-10-11T15:12:13.313Z,22.62
2018-10-11T15:14:41.807Z,22.68
2018-10-11T15:17:10.404Z,22.75
2018-10-11T15:19:38.871Z,22.73
2018-10-11T15:22:07.364Z,22.66
2018-10-11T15:24:35.803Z,22.62
2018-10-11T15:27:04.349Z,22.58
2018-10-11T15:29:32.856Z,22.59
2018-10-11T15:32:01.341Z,22.54
2018-10-11T15:34:30.974Z,22.41
2018-10-11T15:36:59.537Z,22.39
2018-10-11T15:39:27.987Z,22.35
2018-10-11T15:41:57.235Z,22.26
2018-10-11T15:44:25.651Z,22.22
2018-10-11T15:46:54.991Z,22.01
2018-10-11T15:49:23.418Z,22.03
2018-10-11T15:51:51.825Z,21.99
2018-10-11T15:54:20.178Z,21.87
2018-10-11T15:56:48.675Z,21.89
2018-10-11T15:59:17.095Z,21.95
2018-10-11T16:01:45.545Z,21.86
2018-10-11T16:04:14.679Z,21.82
2018-10-11T16:06:43.374Z,21.74
2018-10-11T16:09:12.073Z,21.67
2018-10-11T16:11:40.442Z,21.76
2018-10-11T16:14:09.698Z,21.54
2018-10-11T16:16:38.277Z,21.70
2018-10-11T16:19:06.866Z,21.71
2018-10-11T16:21:35.437Z,21.62
2018-10-11T16:24:04.974Z,21.69
2018-10-11T16:26:35.233Z,21.68
2018-10-11T16:29:04.347Z,21.56
2018-10-11T16:31:32.763Z,21.55
2018-10-11T16:34:01.300Z,21.55
2018-10-11T16:36:29.733Z,21.37
2018-10-11T16:38:58.153Z,21.40
2018-10-11T16:41:26.529Z,21.14
2018-10-11T16:43:55.046Z,21.06
2018-10-11T16:46:25.371Z,21.22
2018-10-11T16:48:53.801Z,21.04
2018-10-11T16:51:22.398Z,21.09
2018-10-11T16:53:52.190Z,21.11
2018-10-11T16:56:20.955Z,21.08
2018-10-11T16:58:49.337Z,20.89
2018-10-11T17:01:18.113Z,20.74
2018-10-11T17:03:47.435Z,20.82
2018-10-11T17:06:15.950Z,20.81
2018-10-11T17:08:44.533Z,20.75
2018-10-11T17:11:13.631Z,20.57
2018-10-11T17:13:42.089Z,20.53
2018-10-11T17:16:11.585Z,20.47
2018-10-11T17:18:40.612Z,20.60
2018-10-11T17:21:09.312Z,20.49
2018-10-11T17:23:37.990Z,20.43
2018-10-11T17:26:06.592Z,20.40
2018-10-11T17:28:35.057Z,20.36
2018-10-11T17:31:03.530Z,20.23
2018-10-11T17:33:32.020Z,19.99
2018-10-11T17:36:01.235Z,19.95
2018-10-11T17:38:30.383Z,19.99
2018-10-11T17:40:58.765Z,19.99
2018-10-11T17:43:27.321Z,20.00
2018-10-11T17:45:55.680Z,19.79
2018-10-11T17:48:24.829Z,19.86
2018-10-11T17:50:53.874Z,19.80
2018-10-11T17:53:22.294Z,19.99
2018-10-11T17:55:50.752Z,19.95
2018-10-11T17:58:19.167Z,19.97
2018-10-11T18:00:49.214Z,19.99
2018-10-11T18:03:18.633Z,20.15
2018-10-11T18:05:48.138Z,20.18
2018-10-11T18:08:16.918Z,20.17
2018-10-11T18:10:45.853Z,20.10
2018-10-11T18:13:14.635Z,20.17
2018-10-11T18:15:43.496Z,20.08
2018-10-11T18:18:12.239Z,20.10
2018-10-11T18:20:46.228Z,20.26
2018-10-11T18:23:15.080Z,20.09
2018-10-11T18:25:44.251Z,19.86
2018-10-11T18:28:13.139Z,19.66
2018-10-11T18:30:43.402Z,19.66
2018-10-11T18:33:12.417Z,19.54
2018-10-11T18:35:41.471Z,19.49
2018-10-11T18:38:10.689Z,19.34
2018-10-11T18:40:40.320Z,19.16
2018-10-11T18:43:10.428Z,19.08
2018-10-11T18:45:39.934Z,18.96
2018-10-11T18:48:08.828Z,18.94
2018-10-11T18:50:37.831Z,18.84
2018-10-11T18:53:08.150Z,18.76
2018-10-11T18:55:38.159Z,18.58
2018-10-11T18:58:07.111Z,18.44
2018-10-11T19:00:36.330Z,18.32
2018-10-11T19:03:05.552Z,18.26
2018-10-11T19:05:34.373Z,18.18
2018-10-11T19:08:03.525Z,18.12
2018-10-11T19:10:33.032Z,18.09
2018-10-11T19:13:02.700Z,18.09
2018-10-11T19:15:31.447Z,17.99
2018-10-11T19:18:00.112Z,17.85
2018-10-11T19:20:28.844Z,17.82
2018-10-11T19:22:58.102Z,17.74
2018-10-11T19:25:27.055Z,17.74
2018-10-11T19:27:56.151Z,17.74
2018-10-11T19:30:25.147Z,17.72
2018-10-11T19:32:53.931Z,17.71
2018-10-11T19:35:22.819Z,17.71
2018-10-11T19:37:51.612Z,17.66
2018-10-11T19:40:20.763Z,17.70
2018-10-11T19:42:50.202Z,17.59
2018-10-11T19:45:20.234Z,17.58
2018-10-11T19:47:49.562Z,17.52
2018-10-11T19:50:18.852Z,17.52
2018-10-11T19:52:47.876Z,17.48
2018-10-11T19:55:17.327Z,17.44
2018-10-11T19:57:45.990Z,17.43
2018-10-11T20:00:14.661Z,17.59
2018-10-11T20:02:43.488Z,17.53
2018-10-11T20:05:12.274Z,17.51
2018-10-11T20:07:40.917Z,17.40
2018-10-11T20:10:10.198Z,17.34
2018-10-11T20:12:41.859Z,17.43
2018-10-11T20:15:10.877Z,17.27
2018-10-11T20:17:40.282Z,17.19
2018-10-11T20:20:09.956Z,17.16
2018-10-11T20:22:39.618Z,17.18
2018-10-11T20:25:13.343Z,17.19
2018-10-11T20:27:42.204Z,17.24
2018-10-11T20:30:15.640Z,17.30
2018-10-11T20:32:44.186Z,17.25
2018-10-11T20:35:12.815Z,17.31
2018-10-11T20:37:41.238Z,17.15
2018-10-11T20:40:10.535Z,17.64
2018-10-11T20:42:38.985Z,17.39
2018-10-11T20:45:07.442Z,17.32
2018-10-11T20:47:35.984Z,17.27
2018-10-11T20:50:04.675Z,17.29
2018-10-11T20:52:33.069Z,17.31
2018-10-11T20:55:01.407Z,17.28
2018-10-11T20:57:29.955Z,17.43
2018-10-11T20:59:58.741Z,17.36
2018-10-11T21:02:27.182Z,17.33
2018-10-11T21:04:55.642Z,17.33
2018-10-11T21:07:24.079Z,17.26
2018-10-11T21:09:52.690Z,17.32
2018-10-11T21:12:21.178Z,17.28
2018-10-11T21:14:49.769Z,17.19
2018-10-11T21:17:18.238Z,17.15
2018-10-11T21:19:46.612Z,17.14
2018-10-11T21:22:15.251Z,17.10
2018-10-11T21:24:44.812Z,16.99
2018-10-11T21:27:13.214Z,17.00
2018-10-11T21:29:41.802Z,16.98
2018-10-11T21:32:11.069Z,17.03
2018-10-11T21:34:39.604Z,17.02
2018-10-11T21:37:08.023Z,16.92
2018-10-11T21:39:36.461Z,16.85
2018-10-11T21:42:06.389Z,16.85
2018-10-11T21:44:34.971Z,16.87
2018-10-11T21:47:03.391Z,16.76
2018-10-11T21:49:32.681Z,16.63
2018-10-11T21:52:01.673Z,16.57
2018-10-11T21:54:30.215Z,16.53
2018-10-11T21:56:59.163Z,16.49
2018-10-11T21:59:27.755Z,16.40
2018-10-11T22:01:56.223Z,16.32
2018-10-11T22:04:24.709Z,16.27
2018-10-11T22:06:53.251Z,16.15
2018-10-11T22:09:21.648Z,15.97
2018-10-11T22:11:50.152Z,15.87
2018-10-11T22:14:18.610Z,15.64
2018-10-11T22:16:47.011Z,15.68
2018-10-11T22:19:15.509Z,15.58
2018-10-11T22:21:43.986Z,15.60
2018-10-11T22:24:12.324Z,15.56
2018-10-11T22:26:40.862Z,15.52
2018-10-11T22:29:09.277Z,15.50
2018-10-11T22:31:37.856Z,15.46
2018-10-11T22:34:06.315Z,15.42
2018-10-11T22:36:34.707Z,15.40
2018-10-11T22:39:03.408Z,15.37
2018-10-11T22:41:32.462Z,15.38
2018-10-11T22:44:00.907Z,15.24
2018-10-11T22:46:29.316Z,15.18
2018-10-11T22:48:57.724Z,15.09
2018-10-11T22:51:26.146Z,15.07
2018-10-11T22:53:54.507Z,14.99
2018-10-11T22:56:23.011Z,15.01
2018-10-11T22:58:52.611Z,14.94
2018-10-11T23:01:20.999Z,14.98
2018-10-11T23:03:50.161Z,14.98
2018-10-11T23:06:19.242Z,14.91
2018-10-11T23:08:48.298Z,14.92
2018-10-11T23:11:16.722Z,14.92
2018-10-11T23:13:45.198Z,14.84
2018-10-11T23:16:14.326Z,14.82
2018-10-11T23:18:42.915Z,14.71
2018-10-11T23:21:12.083Z,14.72
2018-10-11T23:23:41.154Z,14.62
2018-10-11T23:26:09.552Z,14.61
2018-10-11T23:28:38.095Z,14.61
2018-10-11T23:31:06.750Z,14.59
2018-10-11T23:33:35.694Z,14.57
2018-10-11T23:36:04.596Z,14.55
2018-10-11T23:38:32.977Z,14.61
2018-10-11T23:41:01.534Z,14.59
2018-10-11T23:43:29.983Z,14.61
2018-10-11T23:45:58.738Z,14.60
2018-10-11T23:48:27.298Z,14.57
2018-10-11T23:50:55.903Z,14.55
2018-10-11T23:53:24.618Z,14.56
2018-10-11T23:55:53.276Z,14.56
2018-10-11T23:58:22.019Z,14.50
